Airfield :
LOGIN :

Register | Disclaimer

   EN    FR    IT 

 










Legend :    VFR   Marginal VFR   IFR   Intensive IFR   Very Intensive IFR
Visi :
Ceiling :
>= 8 km
>= 3000ft
5 to 8 km
1000 to 3000 ft
1500m to 5 km
500 to 1000 ft
800 to 1500m
200 to 500 ft
< 800m
< 200 ft
Symbols :   Thunderstorms  Fog  Heavy snow  Heavy precipitations  Wind > 20 kt
SIGMETs :     Misc.  Thunderstorms  Icing  Turbulence  Mountain Waves  Volcanic Ashes






- Airport Elevation : 194 ft
- IATA code : ANE


LFJR - Angers Marcé

CURRENT METAR :
  • 280800Z AUTO 22007KT 9999 FEW022/// SCT037/// BKN044/// ///TCU 08/08 Q1014

EXPIRED METARs :
  • 280730Z AUTO 21004KT 9999 FEW031 SCT240 07/07 Q1013
  • 280700Z AUTO VRB03KT 8000 FEW027 BKN230 06/06 Q1013
  • 280630Z AUTO VRB02KT 6000 2200 FEW032 SCT048 OVC230 06/06 Q1013
  • 280600Z AUTO VRB02KT 5000 1100 R26/P2000 BR NSC 07/07 Q1013
  • 280530Z AUTO VRB02KT 8000 NSC 07/07 Q1013
  • 280500Z AUTO 25005KT CAVOK 08/08 Q1013

Expired Forecast.



MET'MAP, your aeronautical weather chart ! - Copyright ORBIFLY December 2007 - Disclaimer

ORBIFLY MET'MAP TEAM :

Programming & Development : Alexandra Zaïnal
Original concept : Baudouin d'Aumeries
Technical & hardware support : Manuel Goepfert
Assistance : Marc-Olivier Méhu




SOURCES & CREDITS :

   NOAA